createdAt,value
2016-06-25T00:00:10.804Z,52.70
2016-06-25T00:01:14.335Z,52.70
2016-06-25T00:02:11.912Z,52.70
2016-06-25T00:03:11.954Z,52.90
2016-06-25T00:04:10.425Z,52.80
2016-06-25T00:05:22.459Z,52.90
2016-06-25T00:06:10.197Z,52.90
2016-06-25T00:07:20.041Z,52.80
2016-06-25T00:08:13.045Z,53.00
2016-06-25T00:09:11.702Z,53.00
2016-06-25T00:10:10.993Z,is
2016-06-25T00:11:16.826Z,52.80
2016-06-25T00:12:11.544Z,53.00
2016-06-25T00:13:10.158Z,52.90
2016-06-25T00:14:13.780Z,53.20
2016-06-25T00:15:16.868Z,53.30
2016-06-25T00:16:10.822Z,53.90
2016-06-25T00:17:12.582Z,53.20
2016-06-25T00:18:11.792Z,53.20
2016-06-25T00:19:10.913Z,53.00
2016-06-25T00:20:10.887Z,52.90
2016-06-25T00:21:10.222Z,53.00
2016-06-25T00:22:10.271Z,53.00
2016-06-25T00:23:13.561Z,53.10
2016-06-25T00:24:11.606Z,52.90
2016-06-25T00:25:09.659Z,53.10
2016-06-25T00:26:12.168Z,52.60
2016-06-25T00:27:16.290Z,53.00
2016-06-25T00:28:09.434Z,52.80
2016-06-25T00:29:10.448Z,53.00
2016-06-25T00:30:16.287Z,52.90
2016-06-25T00:31:17.802Z,53.10
2016-06-25T00:32:12.165Z,53.10
2016-06-25T00:33:11.002Z,53.10
2016-06-25T00:34:11.458Z,53.10
2016-06-25T00:35:14.678Z,53.20
2016-06-25T00:36:10.130Z,53.10
2016-06-25T00:37:21.242Z,52.30
2016-06-25T00:38:11.608Z,53.20
2016-06-25T00:39:14.951Z,53.00
2016-06-25T00:40:16.621Z,52.90
2016-06-25T00:41:11.830Z,53.00
2016-06-25T00:42:11.350Z,53.00
2016-06-25T00:43:11.562Z,52.90
2016-06-25T00:44:15.044Z,52.70
2016-06-25T00:45:11.398Z,52.80
2016-06-25T00:46:10.649Z,52.70
2016-06-25T00:47:10.693Z,52.80
2016-06-25T00:48:10.132Z,52.80
2016-06-25T00:49:16.499Z,53.20
2016-06-25T00:50:18.047Z,52.90
2016-06-25T00:51:14.319Z,52.90
2016-06-25T00:52:13.151Z,53.10
2016-06-25T00:53:16.790Z,53.00
2016-06-25T00:54:12.663Z,53.00
2016-06-25T00:55:09.981Z,52.80
2016-06-25T00:56:10.232Z,52.70
2016-06-25T00:57:08.503Z,is
2016-06-25T00:58:15.229Z,52.80
2016-06-25T00:59:17.847Z,53.00
2016-06-25T01:00:16.250Z,52.70
2016-06-25T01:01:15.550Z,52.70
2016-06-25T01:02:10.267Z,is
2016-06-25T01:03:10.783Z,52.80
2016-06-25T01:04:13.990Z,52.80
2016-06-25T01:05:10.226Z,52.80
2016-06-25T01:06:13.570Z,52.80
2016-06-25T01:07:14.800Z,51.80
2016-06-25T01:08:14.282Z,52.90
2016-06-25T01:09:10.832Z,52.90
2016-06-25T01:10:17.714Z,52.20
2016-06-25T01:11:21.510Z,52.90
2016-06-25T01:12:16.549Z,53.20
2016-06-25T01:13:12.648Z,53.30
2016-06-25T01:14:11.291Z,53.30
2016-06-25T01:15:10.084Z,53.20
2016-06-25T01:16:11.805Z,53.30
2016-06-25T01:17:13.973Z,53.40
2016-06-25T01:18:11.336Z,53.20
2016-06-25T01:19:16.766Z,53.00
2016-06-25T01:20:23.718Z,52.90
2016-06-25T01:21:13.563Z,52.80
2016-06-25T01:22:14.610Z,52.10
2016-06-25T01:23:15.052Z,52.60
2016-06-25T01:24:15.830Z,52.60
2016-06-25T01:25:10.483Z,52.70
2016-06-25T01:26:12.010Z,52.80
2016-06-25T01:27:16.894Z,52.70
2016-06-25T01:28:09.766Z,52.50
2016-06-25T01:29:12.632Z,52.50
2016-06-25T01:30:11.122Z,52.60
2016-06-25T01:31:16.742Z,52.60
2016-06-25T01:32:10.603Z,52.70
2016-06-25T01:33:18.596Z,52.80
2016-06-25T01:34:18.813Z,52.60
2016-06-25T01:35:13.044Z,52.70
2016-06-25T01:36:11.630Z,52.60
2016-06-25T01:37:10.658Z,52.50
2016-06-25T01:38:16.803Z,52.50
2016-06-25T01:39:09.647Z,is
2016-06-25T01:40:15.175Z,52.40
2016-06-25T01:41:08.297Z,is
2016-06-25T01:42:12.333Z,52.50
2016-06-25T01:43:19.232Z,52.20
2016-06-25T01:44:21.740Z,52.00
2016-06-25T01:45:22.646Z,52.00
2016-06-25T01:46:20.231Z,52.20
2016-06-25T01:47:14.741Z,52.00
2016-06-25T01:48:12.895Z,51.90
2016-06-25T01:49:11.336Z,52.10
2016-06-25T01:50:11.444Z,52.20
2016-06-25T01:51:14.482Z,52.30
2016-06-25T01:52:12.210Z,52.20
2016-06-25T01:53:15.514Z,52.30
2016-06-25T01:54:14.709Z,52.40
2016-06-25T01:55:16.870Z,52.60
2016-06-25T01:56:17.830Z,52.60
2016-06-25T01:57:16.204Z,52.10
2016-06-25T01:58:15.871Z,52.10
2016-06-25T01:59:11.036Z,52.20
2016-06-25T02:00:12.745Z,52.10
2016-06-25T02:01:11.997Z,52.00
2016-06-25T02:02:11.462Z,52.10
2016-06-25T02:03:15.469Z,52.20
2016-06-25T02:04:15.981Z,52.20
2016-06-25T02:05:17.777Z,52.30
2016-06-25T02:06:16.971Z,52.60
2016-06-25T02:07:19.411Z,52.60
2016-06-25T02:08:11.747Z,51.60
2016-06-25T02:09:18.296Z,52.30
2016-06-25T02:10:22.186Z,52.20
2016-06-25T02:11:11.838Z,52.30
2016-06-25T02:12:10.790Z,52.50
2016-06-25T02:13:11.115Z,53.00
2016-06-25T02:14:11.925Z,52.60
2016-06-25T02:15:10.690Z,52.60
2016-06-25T02:16:17.850Z,53.10
2016-06-25T02:17:21.187Z,is
2016-06-25T02:18:10.554Z,52.50
2016-06-25T02:19:15.749Z,52.30
2016-06-25T02:20:13.936Z,52.40
2016-06-25T02:21:09.864Z,52.50
2016-06-25T02:22:10.590Z,52.60
2016-06-25T02:23:10.507Z,52.80
2016-06-25T02:24:13.383Z,53.00
2016-06-25T02:25:11.341Z,52.90
2016-06-25T02:26:17.440Z,53.00
2016-06-25T02:27:18.442Z,is
2016-06-25T02:28:20.599Z,53.00
2016-06-25T02:29:22.238Z,53.00
2016-06-25T02:30:17.360Z,53.10
2016-06-25T02:31:16.602Z,53.40
2016-06-25T02:32:16.459Z,53.50
2016-06-25T02:33:11.450Z,53.60
2016-06-25T02:34:11.046Z,53.40
2016-06-25T02:35:19.389Z,53.20
2016-06-25T02:36:19.162Z,53.20
2016-06-25T02:37:18.410Z,53.20
2016-06-25T02:38:17.481Z,is
2016-06-25T02:39:17.014Z,52.10
2016-06-25T02:40:12.594Z,52.80
2016-06-25T02:41:22.929Z,52.00
2016-06-25T02:42:12.901Z,53.00
2016-06-25T02:43:11.486Z,53.10
2016-06-25T02:44:12.871Z,53.20
2016-06-25T02:45:11.972Z,53.10
2016-06-25T02:46:12.799Z,53.20
2016-06-25T02:47:10.807Z,53.20
2016-06-25T02:48:18.889Z,52.30
2016-06-25T02:49:16.268Z,53.20
2016-06-25T02:50:16.630Z,53.40
2016-06-25T02:51:21.331Z,53.60
2016-06-25T02:52:22.570Z,53.50
2016-06-25T02:53:14.942Z,53.40
2016-06-25T02:54:15.763Z,53.60
2016-06-25T02:55:13.995Z,53.60
2016-06-25T02:56:11.802Z,53.60
2016-06-25T02:57:16.183Z,53.50
2016-06-25T02:58:10.404Z,53.40
2016-06-25T02:59:14.737Z,53.60
2016-06-25T03:00:27.381Z,53.40
2016-06-25T03:01:19.175Z,53.50
2016-06-25T03:02:13.520Z,53.40
2016-06-25T03:03:16.461Z,53.20
2016-06-25T03:04:20.848Z,53.20
2016-06-25T03:05:16.337Z,is
2016-06-25T03:06:11.560Z,53.10
2016-06-25T03:07:12.879Z,53.10
2016-06-25T03:08:14.205Z,52.80
2016-06-25T03:09:16.727Z,52.90
2016-06-25T03:10:17.911Z,52.80
2016-06-25T03:11:18.339Z,52.90
2016-06-25T03:12:17.893Z,is
2016-06-25T03:13:17.189Z,52.90
2016-06-25T03:14:09.290Z,52.80
2016-06-25T03:15:11.071Z,52.80
2016-06-25T03:16:12.964Z,52.90
2016-06-25T03:17:14.334Z,52.80
2016-06-25T03:18:11.848Z,52.90
2016-06-25T03:19:10.677Z,52.80
2016-06-25T03:20:15.559Z,52.80
2016-06-25T03:21:11.179Z,52.90
2016-06-25T03:22:12.237Z,52.90
2016-06-25T03:23:22.039Z,52.90
2016-06-25T03:24:16.549Z,52.90
2016-06-25T03:25:16.701Z,53.30
2016-06-25T03:26:20.956Z,53.00
2016-06-25T03:27:15.244Z,53.00
2016-06-25T03:28:18.351Z,53.10
2016-06-25T03:29:12.997Z,53.00
2016-06-25T03:30:14.275Z,53.20
2016-06-25T03:31:11.094Z,53.10
2016-06-25T03:32:09.483Z,is
2016-06-25T03:33:10.877Z,52.80
2016-06-25T03:34:17.291Z,52.90
2016-06-25T03:35:17.388Z,53.00
2016-06-25T03:36:21.843Z,53.20
2016-06-25T03:37:22.901Z,52.30
2016-06-25T03:38:20.911Z,53.30
2016-06-25T03:39:11.371Z,53.20
2016-06-25T03:40:11.154Z,53.00
2016-06-25T03:41:16.004Z,52.90
2016-06-25T03:42:15.389Z,53.30
2016-06-25T03:43:15.774Z,53.30
2016-06-25T03:44:22.679Z,53.30
2016-06-25T03:45:17.785Z,53.30
2016-06-25T03:46:18.727Z,53.40
2016-06-25T03:47:22.902Z,53.30
2016-06-25T03:48:09.746Z,53.30
2016-06-25T03:49:21.357Z,53.30
2016-06-25T03:50:22.132Z,53.30
2016-06-25T03:51:17.248Z,52.40
2016-06-25T03:52:17.582Z,53.30
2016-06-25T03:53:23.242Z,53.20
2016-06-25T03:54:22.805Z,53.30
2016-06-25T03:55:18.098Z,53.20
2016-06-25T03:56:14.919Z,53.30
2016-06-25T03:57:20.359Z,53.30
2016-06-25T03:58:19.233Z,53.30
2016-06-25T03:59:09.959Z,53.40
2016-06-25T04:00:12.489Z,52.80
2016-06-25T04:01:13.178Z,53.50
2016-06-25T04:02:16.795Z,53.50
2016-06-25T04:03:14.102Z,53.70
2016-06-25T04:04:17.667Z,is
2016-06-25T04:05:15.275Z,53.80
2016-06-25T04:06:17.696Z,53.90
2016-06-25T04:07:17.837Z,54.10
2016-06-25T04:08:16.506Z,54.40
2016-06-25T04:09:21.750Z,54.20
2016-06-25T04:10:16.175Z,54.00
2016-06-25T04:11:16.355Z,54.10
2016-06-25T04:12:13.132Z,is
2016-06-25T04:13:12.082Z,54.00
2016-06-25T04:14:22.830Z,53.80
2016-06-25T04:15:17.486Z,53.80
2016-06-25T04:16:16.278Z,53.80
2016-06-25T04:17:17.410Z,53.80
2016-06-25T04:18:18.149Z,53.70
2016-06-25T04:19:27.218Z,53.00
2016-06-25T04:20:15.626Z,53.50
2016-06-25T04:21:17.314Z,53.50
2016-06-25T04:22:18.673Z,53.40
2016-06-25T04:23:21.820Z,53.50
2016-06-25T04:24:16.319Z,52.90
2016-06-25T04:25:12.322Z,53.50
2016-06-25T04:26:17.412Z,53.50
2016-06-25T04:27:17.083Z,53.40
2016-06-25T04:28:17.222Z,53.50
2016-06-25T04:29:21.837Z,53.50
2016-06-25T04:30:10.463Z,is
2016-06-25T04:31:17.283Z,53.60
2016-06-25T04:32:15.683Z,53.30
2016-06-25T04:33:17.999Z,53.30
2016-06-25T04:34:16.338Z,53.40
2016-06-25T04:35:14.444Z,53.60
2016-06-25T04:36:12.544Z,53.70
2016-06-25T04:37:09.964Z,53.90
2016-06-25T04:38:15.545Z,53.80
2016-06-25T04:39:13.675Z,52.90
2016-06-25T04:40:12.356Z,53.70
2016-06-25T04:41:16.640Z,53.60
2016-06-25T04:42:16.023Z,53.80
2016-06-25T04:43:21.863Z,52.90
2016-06-25T04:44:18.047Z,54.00
2016-06-25T04:45:20.026Z,54.20
2016-06-25T04:46:22.533Z,54.10
2016-06-25T04:47:18.607Z,54.30
2016-06-25T04:48:14.142Z,54.20
2016-06-25T04:49:15.295Z,54.00
2016-06-25T04:50:11.506Z,54.00
2016-06-25T04:51:11.635Z,54.40
2016-06-25T04:52:10.266Z,54.10
2016-06-25T04:53:21.615Z,54.20
2016-06-25T04:54:20.203Z,54.20
2016-06-25T04:55:15.862Z,54.20
2016-06-25T04:56:22.080Z,54.20
2016-06-25T04:57:13.769Z,54.10
2016-06-25T04:58:22.650Z,54.10
2016-06-25T04:59:14.185Z,54.20
2016-06-25T05:00:15.447Z,54.20
2016-06-25T05:01:16.505Z,54.20
2016-06-25T05:02:10.602Z,54.20
2016-06-25T05:03:20.553Z,54.30
2016-06-25T05:04:10.842Z,54.30
2016-06-25T05:05:18.023Z,is
2016-06-25T05:06:12.139Z,54.20
2016-06-25T05:07:18.682Z,54.30
2016-06-25T05:08:12.793Z,54.30
2016-06-25T05:09:13.975Z,54.30
2016-06-25T05:10:13.782Z,54.30
2016-06-25T05:11:12.672Z,54.40
2016-06-25T05:12:13.106Z,54.60
2016-06-25T05:13:21.261Z,54.70
2016-06-25T05:14:21.907Z,54.70
2016-06-25T05:15:19.084Z,54.70
2016-06-25T05:16:24.691Z,54.80
2016-06-25T05:17:16.603Z,54.70
2016-06-25T05:18:12.266Z,54.90
2016-06-25T05:19:12.225Z,54.70
2016-06-25T05:20:11.547Z,54.90
2016-06-25T05:21:10.871Z,54.90
2016-06-25T05:22:11.567Z,54.90
2016-06-25T05:23:10.559Z,55.00
2016-06-25T05:24:17.337Z,54.90
2016-06-25T05:25:18.167Z,54.90
2016-06-25T05:26:14.405Z,54.80
2016-06-25T05:27:17.720Z,55.20
2016-06-25T05:28:22.545Z,54.90
2016-06-25T05:29:16.594Z,54.90
2016-06-25T05:30:10.777Z,55.00
2016-06-25T05:31:11.907Z,55.20
2016-06-25T05:32:10.762Z,55.20
2016-06-25T05:33:10.594Z,55.10
2016-06-25T05:34:12.301Z,55.20
2016-06-25T05:35:17.676Z,55.20
2016-06-25T05:36:16.809Z,55.30
2016-06-25T05:37:16.871Z,55.40
2016-06-25T05:38:27.488Z,54.60
2016-06-25T05:39:18.508Z,55.00
2016-06-25T05:40:13.389Z,55.20
2016-06-25T05:41:11.454Z,55.20
2016-06-25T05:42:11.789Z,55.30
2016-06-25T05:43:17.186Z,55.30
2016-06-25T05:44:12.005Z,55.20
2016-06-25T05:45:16.406Z,55.20
2016-06-25T05:46:16.302Z,55.10
2016-06-25T05:47:22.423Z,55.30
2016-06-25T05:48:10.321Z,55.30
2016-06-25T05:49:16.983Z,55.40
2016-06-25T05:50:22.996Z,54.20
2016-06-25T05:51:15.470Z,55.10
2016-06-25T05:52:11.814Z,55.10
2016-06-25T05:53:12.800Z,55.00
2016-06-25T05:54:22.758Z,55.00
2016-06-25T05:55:11.773Z,55.00
2016-06-25T05:56:11.589Z,54.90
2016-06-25T05:57:19.118Z,54.80
2016-06-25T05:58:22.062Z,54.70
2016-06-25T05:59:19.586Z,54.70
2016-06-25T06:00:10.459Z,54.50
2016-06-25T06:01:11.829Z,54.50
2016-06-25T06:02:10.792Z,54.50
2016-06-25T06:03:17.746Z,is
2016-06-25T06:04:22.946Z,54.50
2016-06-25T06:05:15.185Z,54.50
2016-06-25T06:06:16.332Z,54.60
2016-06-25T06:07:16.298Z,54.30
2016-06-25T06:08:16.442Z,54.20
2016-06-25T06:09:16.513Z,54.20
2016-06-25T06:10:20.445Z,54.20
2016-06-25T06:11:18.446Z,54.10
2016-06-25T06:12:15.267Z,54.00
2016-06-25T06:13:10.334Z,54.00
2016-06-25T06:14:10.125Z,54.00
2016-06-25T06:15:12.596Z,53.90
2016-06-25T06:16:15.998Z,53.80
2016-06-25T06:17:18.167Z,53.80
2016-06-25T06:18:11.123Z,53.90
2016-06-25T06:19:13.574Z,54.00
2016-06-25T06:20:11.504Z,53.90
2016-06-25T06:21:17.161Z,54.00
2016-06-25T06:22:16.502Z,53.90
2016-06-25T06:23:15.873Z,54.00
2016-06-25T06:24:11.777Z,54.10
2016-06-25T06:25:10.721Z,53.90
2016-06-25T06:26:10.567Z,54.00
2016-06-25T06:27:11.261Z,54.00
2016-06-25T06:28:10.841Z,54.10
2016-06-25T06:29:10.523Z,53.90
2016-06-25T06:30:16.069Z,54.00
2016-06-25T06:31:16.590Z,53.80
2016-06-25T06:32:15.973Z,53.50
2016-06-25T06:33:15.633Z,53.70
2016-06-25T06:34:11.517Z,53.70
2016-06-25T06:35:14.466Z,53.70
2016-06-25T06:36:14.881Z,53.60
2016-06-25T06:37:17.695Z,54.00
2016-06-25T06:38:18.951Z,54.00
2016-06-25T06:39:18.376Z,54.00
2016-06-25T06:40:12.970Z,54.00
2016-06-25T06:41:22.998Z,54.00
2016-06-25T06:42:16.318Z,54.00
2016-06-25T06:43:14.693Z,53.70
2016-06-25T06:44:10.506Z,53.60
2016-06-25T06:45:13.621Z,53.60
2016-06-25T06:46:10.323Z,53.70
2016-06-25T06:47:14.591Z,53.60
2016-06-25T06:48:14.250Z,53.60
2016-06-25T06:49:11.515Z,53.60
2016-06-25T06:50:10.747Z,53.60
2016-06-25T06:51:10.955Z,53.60
2016-06-25T06:52:20.002Z,53.60
2016-06-25T06:53:16.587Z,53.60
2016-06-25T06:54:17.709Z,53.60
2016-06-25T06:55:20.962Z,53.50
2016-06-25T06:56:11.315Z,53.60
2016-06-25T06:57:10.416Z,53.60
2016-06-25T06:58:12.826Z,53.60
2016-06-25T06:59:15.603Z,53.70
2016-06-25T07:00:15.290Z,53.80
2016-06-25T07:01:17.073Z,52.80
2016-06-25T07:02:19.156Z,53.40
2016-06-25T07:03:11.451Z,53.40
2016-06-25T07:04:12.181Z,53.50
2016-06-25T07:05:16.113Z,is
2016-06-25T07:06:15.063Z,52.70
2016-06-25T07:07:10.989Z,53.60
2016-06-25T07:08:12.062Z,53.10
2016-06-25T07:09:16.102Z,53.70
2016-06-25T07:10:13.071Z,53.70
2016-06-25T07:11:10.665Z,53.70
2016-06-25T07:12:15.238Z,53.70
2016-06-25T07:13:08.406Z,is
2016-06-25T07:14:19.240Z,53.80
2016-06-25T07:15:21.794Z,53.90
2016-06-25T07:16:19.508Z,is
2016-06-25T07:17:23.168Z,53.00
2016-06-25T07:18:19.497Z,53.50
2016-06-25T07:19:10.689Z,53.20
2016-06-25T07:20:10.934Z,53.10
2016-06-25T07:21:11.754Z,52.70
2016-06-25T07:22:11.872Z,52.80
2016-06-25T07:23:16.143Z,53.00
2016-06-25T07:24:13.986Z,is
2016-06-25T07:25:19.438Z,52.70
2016-06-25T07:26:15.115Z,52.70
2016-06-25T07:27:12.369Z,52.40
2016-06-25T07:28:16.115Z,52.10
2016-06-25T07:29:13.422Z,52.20
2016-06-25T07:30:11.753Z,51.90
2016-06-25T07:31:11.366Z,51.90
2016-06-25T07:32:11.541Z,51.70
2016-06-25T07:33:11.169Z,51.80
2016-06-25T07:34:10.743Z,51.40
2016-06-25T07:35:17.154Z,51.60
2016-06-25T07:36:16.570Z,51.50
2016-06-25T07:37:16.645Z,51.40
2016-06-25T07:38:15.937Z,is
2016-06-25T07:39:13.117Z,51.50
2016-06-25T07:40:21.228Z,51.60
2016-06-25T07:41:13.190Z,51.40
2016-06-25T07:42:11.258Z,51.50
2016-06-25T07:43:19.646Z,is
2016-06-25T07:44:13.073Z,51.60
2016-06-25T07:45:11.050Z,51.70
2016-06-25T07:46:13.617Z,51.70
2016-06-25T07:47:16.739Z,51.70
2016-06-25T07:48:18.322Z,51.70
2016-06-25T07:49:11.899Z,51.60
2016-06-25T07:50:19.749Z,51.70
2016-06-25T07:51:14.731Z,is
2016-06-25T07:52:10.933Z,51.50
2016-06-25T07:53:12.449Z,51.60
2016-06-25T07:54:17.996Z,51.50
2016-06-25T07:55:18.895Z,52.20
2016-06-25T07:56:16.076Z,51.70
2016-06-25T07:57:19.771Z,51.70
2016-06-25T07:58:22.976Z,51.80
2016-06-25T07:59:17.293Z,51.80
2016-06-25T08:00:21.547Z,51.80
2016-06-25T08:01:24.369Z,51.90
2016-06-25T08:02:11.412Z,51.80
2016-06-25T08:03:15.122Z,51.90
2016-06-25T08:04:11.876Z,51.80
2016-06-25T08:05:15.659Z,51.70
2016-06-25T08:06:11.072Z,51.70
2016-06-25T08:07:10.054Z,51.50
2016-06-25T08:08:15.900Z,51.60
2016-06-25T08:09:22.273Z,51.70
2016-06-25T08:10:17.225Z,is
2016-06-25T08:11:16.084Z,51.70
2016-06-25T08:12:21.476Z,50.90
2016-06-25T08:13:10.910Z,51.80
2016-06-25T08:14:11.402Z,51.80
2016-06-25T08:15:10.749Z,51.80
2016-06-25T08:16:17.279Z,51.70
2016-06-25T08:17:15.795Z,51.80
2016-06-25T08:18:11.469Z,52.00
2016-06-25T08:19:13.433Z,51.90
2016-06-25T08:20:16.272Z,52.00
2016-06-25T08:21:13.018Z,51.90
2016-06-25T08:22:12.060Z,51.70
2016-06-25T08:23:18.530Z,is
2016-06-25T08:24:15.857Z,51.60
2016-06-25T08:25:20.308Z,51.70
2016-06-25T08:26:14.489Z,51.70
2016-06-25T08:27:10.360Z,51.80
2016-06-25T08:28:13.015Z,51.80
2016-06-25T08:29:17.228Z,51.80
2016-06-25T08:30:17.519Z,51.80
2016-06-25T08:31:11.867Z,is
2016-06-25T08:32:14.953Z,51.70
2016-06-25T08:33:20.618Z,50.70
2016-06-25T08:34:15.347Z,51.70
2016-06-25T08:35:10.780Z,51.60
2016-06-25T08:36:11.030Z,51.70
2016-06-25T08:37:10.839Z,51.60
2016-06-25T08:38:15.261Z,51.70
2016-06-25T08:39:16.359Z,51.60
2016-06-25T08:40:13.359Z,51.60
2016-06-25T08:41:13.305Z,51.50
2016-06-25T08:42:14.550Z,51.60
2016-06-25T08:43:16.465Z,51.40
2016-06-25T08:44:12.921Z,51.50
2016-06-25T08:45:10.771Z,51.70
2016-06-25T08:46:11.413Z,51.70
2016-06-25T08:47:14.702Z,51.70
2016-06-25T08:48:10.401Z,51.60
2016-06-25T08:49:11.339Z,51.60
2016-06-25T08:50:12.921Z,51.70
2016-06-25T08:51:16.547Z,51.80
2016-06-25T08:52:15.238Z,51.80
2016-06-25T08:53:14.209Z,51.80
2016-06-25T08:54:10.420Z,51.80
2016-06-25T08:55:10.717Z,51.90
2016-06-25T08:56:14.296Z,51.80
2016-06-25T08:57:15.152Z,is
2016-06-25T08:58:09.972Z,51.30
2016-06-25T08:59:11.011Z,51.30
2016-06-25T09:00:11.897Z,51.20
2016-06-25T09:01:11.481Z,51.10
2016-06-25T09:02:14.283Z,51.20
2016-06-25T09:03:13.882Z,51.20
2016-06-25T09:04:13.399Z,51.10
2016-06-25T09:05:13.319Z,50.20
2016-06-25T09:06:10.987Z,51.20
2016-06-25T09:07:11.745Z,50.60
2016-06-25T09:08:11.483Z,51.20
2016-06-25T09:09:10.604Z,51.30
2016-06-25T09:10:11.957Z,51.10
2016-06-25T09:11:11.487Z,51.10
2016-06-25T09:12:10.710Z,51.10
2016-06-25T09:13:16.864Z,is
2016-06-25T09:14:16.870Z,51.10
2016-06-25T09:15:17.002Z,51.10
2016-06-25T09:16:15.716Z,50.70
2016-06-25T09:17:10.872Z,51.20
2016-06-25T09:18:10.557Z,51.30
2016-06-25T09:19:15.416Z,51.30
2016-06-25T09:20:12.850Z,51.30
2016-06-25T09:21:20.220Z,51.40
2016-06-25T09:22:16.802Z,51.40
2016-06-25T09:23:13.794Z,51.30
2016-06-25T09:24:16.298Z,is
2016-06-25T09:25:18.534Z,51.50
2016-06-25T09:26:21.470Z,51.60
2016-06-25T09:27:12.286Z,51.60
2016-06-25T09:28:15.361Z,51.80
2016-06-25T09:29:20.768Z,52.30
2016-06-25T09:30:15.654Z,52.50
2016-06-25T09:31:22.954Z,52.70
2016-06-25T09:32:25.508Z,52.90
2016-06-25T09:33:21.921Z,53.00
2016-06-25T09:34:20.259Z,52.90
2016-06-25T09:35:23.498Z,52.90
2016-06-25T09:36:19.982Z,53.00
2016-06-25T09:37:20.600Z,53.00
2016-06-25T09:38:21.651Z,53.10
2016-06-25T09:39:18.533Z,is
2016-06-25T09:40:18.886Z,53.10
2016-06-25T09:41:23.207Z,53.20
2016-06-25T09:42:11.627Z,53.20
2016-06-25T09:43:13.809Z,53.70
2016-06-25T09:44:18.136Z,52.60
2016-06-25T09:45:22.983Z,53.30
2016-06-25T09:46:17.135Z,53.30
2016-06-25T09:47:21.952Z,53.30
2016-06-25T09:48:10.913Z,53.30
2016-06-25T09:49:15.115Z,53.30
2016-06-25T09:50:22.842Z,53.40
2016-06-25T09:51:22.003Z,53.30
2016-06-25T09:52:21.943Z,53.40
2016-06-25T09:53:11.276Z,53.40
2016-06-25T09:54:14.218Z,53.40
2016-06-25T09:55:11.956Z,53.40
2016-06-25T09:56:12.553Z,53.40
2016-06-25T09:57:16.209Z,53.50
2016-06-25T09:58:13.938Z,53.40
2016-06-25T09:59:23.901Z,53.50
2016-06-25T10:00:19.794Z,53.50
2016-06-25T10:01:14.194Z,53.40
2016-06-25T10:02:17.816Z,53.40
2016-06-25T10:03:12.197Z,53.40
2016-06-25T10:04:25.601Z,53.40
2016-06-25T10:05:11.487Z,53.40
2016-06-25T10:06:16.037Z,53.40
2016-06-25T10:07:16.211Z,53.30
2016-06-25T10:08:18.327Z,53.40
2016-06-25T10:09:15.005Z,53.40
2016-06-25T10:10:21.887Z,is
2016-06-25T10:11:16.746Z,53.40
2016-06-25T10:12:17.744Z,53.30
2016-06-25T10:13:15.739Z,53.30
2016-06-25T10:14:13.675Z,53.30
2016-06-25T10:15:11.245Z,53.30
2016-06-25T10:16:19.239Z,53.30
2016-06-25T10:17:15.026Z,53.20
2016-06-25T10:18:16.941Z,53.20
2016-06-25T10:19:16.390Z,53.40
2016-06-25T10:20:15.850Z,is
2016-06-25T10:21:11.036Z,53.30
2016-06-25T10:22:14.084Z,53.40
2016-06-25T10:23:17.294Z,53.20
2016-06-25T10:24:16.501Z,53.30
2016-06-25T10:25:13.727Z,53.20
2016-06-25T10:26:11.357Z,53.20
2016-06-25T10:27:14.955Z,53.20
2016-06-25T10:28:14.457Z,53.20
2016-06-25T10:29:12.690Z,53.20
2016-06-25T10:30:17.174Z,52.30
2016-06-25T10:31:16.235Z,53.40
2016-06-25T10:32:16.089Z,53.50
2016-06-25T10:33:19.483Z,53.20
2016-06-25T10:34:19.214Z,53.10
2016-06-25T10:35:16.567Z,51.70
2016-06-25T10:36:15.478Z,51.70
2016-06-25T10:37:21.714Z,51.50
2016-06-25T10:38:18.839Z,51.00
2016-06-25T10:39:18.167Z,50.80
2016-06-25T10:40:15.734Z,50.70
2016-06-25T10:41:16.185Z,is
2016-06-25T10:42:17.461Z,50.60
2016-06-25T10:43:15.167Z,50.60
2016-06-25T10:44:14.961Z,50.50
2016-06-25T10:45:16.907Z,50.70
2016-06-25T10:46:25.960Z,50.50
2016-06-25T10:47:23.019Z,50.40
2016-06-25T10:48:13.301Z,50.20
2016-06-25T10:49:17.924Z,50.10
2016-06-25T10:50:20.407Z,50.10
2016-06-25T10:51:23.291Z,49.80
2016-06-25T10:52:27.172Z,49.90
2016-06-25T10:53:14.701Z,49.90
2016-06-25T10:54:21.897Z,49.90
2016-06-25T10:55:23.018Z,50.00
2016-06-25T10:56:25.131Z,49.80
2016-06-25T10:57:25.789Z,49.80
2016-06-25T10:58:23.264Z,49.80
2016-06-25T10:59:19.883Z,49.50
2016-06-25T11:00:14.172Z,49.60
2016-06-25T11:01:19.996Z,49.50
2016-06-25T11:02:14.236Z,49.20
2016-06-25T11:03:11.934Z,49.30
2016-06-25T11:04:18.151Z,is
2016-06-25T11:05:25.855Z,49.30
2016-06-25T11:06:09.591Z,is
2016-06-25T11:07:21.136Z,49.40
2016-06-25T11:08:21.476Z,48.90
2016-06-25T11:09:19.501Z,49.10
2016-06-25T11:10:23.914Z,49.20
2016-06-25T11:11:22.532Z,49.30
2016-06-25T11:13:15.715Z,49.20
2016-06-25T11:14:16.786Z,49.30
2016-06-25T11:15:17.769Z,49.30
2016-06-25T11:16:17.925Z,49.50
2016-06-25T11:17:20.165Z,49.60
2016-06-25T11:18:10.378Z,49.70
2016-06-25T11:19:28.042Z,49.70
2016-06-25T11:20:22.269Z,49.70
2016-06-25T11:21:17.083Z,49.70
2016-06-25T11:22:17.129Z,49.70
2016-06-25T11:23:27.501Z,49.80
2016-06-25T11:24:14.795Z,49.80
2016-06-25T11:25:17.531Z,49.70
2016-06-25T11:26:22.064Z,is
2016-06-25T11:27:21.349Z,49.90
2016-06-25T11:28:16.343Z,50.00
2016-06-25T11:29:20.014Z,50.00
2016-06-25T11:30:17.263Z,50.20
2016-06-25T11:31:22.683Z,50.10
2016-06-25T11:32:12.758Z,50.20
2016-06-25T11:33:18.759Z,50.20
2016-06-25T11:34:18.418Z,50.20
2016-06-25T11:35:17.427Z,50.20
2016-06-25T11:36:23.086Z,50.30
2016-06-25T11:37:21.470Z,50.30
2016-06-25T11:38:13.954Z,50.30
2016-06-25T11:39:17.563Z,50.30
2016-06-25T11:40:18.587Z,50.20
2016-06-25T11:41:28.074Z,50.30
2016-06-25T11:42:15.503Z,50.20
2016-06-25T11:43:23.504Z,50.20
2016-06-25T11:44:17.826Z,50.20
2016-06-25T11:45:16.122Z,49.60
2016-06-25T11:46:16.279Z,50.30
2016-06-25T11:47:19.421Z,50.20
2016-06-25T11:48:18.523Z,50.20
2016-06-25T11:49:23.120Z,is
2016-06-25T11:50:28.651Z,50.30
2016-06-25T11:51:10.647Z,50.30
2016-06-25T11:52:21.149Z,50.30
2016-06-25T11:53:22.785Z,50.30
2016-06-25T11:54:23.093Z,50.30
2016-06-25T11:55:26.267Z,50.30
2016-06-25T11:56:18.116Z,50.30
2016-06-25T11:57:15.801Z,50.30
2016-06-25T11:58:22.781Z,49.50
2016-06-25T11:59:23.230Z,50.20
2016-06-25T12:00:16.845Z,50.20
2016-06-25T12:01:13.557Z,50.30
2016-06-25T12:02:19.358Z,50.40
2016-06-25T12:03:22.811Z,50.30
2016-06-25T12:04:22.639Z,50.30
2016-06-25T12:05:23.111Z,50.30
2016-06-25T12:06:30.154Z,50.50
2016-06-25T12:07:22.891Z,50.60
2016-06-25T12:08:24.147Z,50.50
2016-06-25T12:09:14.729Z,50.50
2016-06-25T12:10:17.855Z,50.40
2016-06-25T12:11:23.866Z,50.40
2016-06-25T12:12:17.832Z,50.50
2016-06-25T12:13:11.919Z,50.50
2016-06-25T12:14:21.610Z,50.50
2016-06-25T12:15:14.267Z,50.40
2016-06-25T12:16:15.522Z,50.40
2016-06-25T12:17:22.515Z,50.40
2016-06-25T12:18:14.659Z,50.50
2016-06-25T12:19:23.974Z,50.60
2016-06-25T12:20:22.929Z,50.60
2016-06-25T12:21:21.127Z,50.70
2016-06-25T12:22:21.872Z,50.70
2016-06-25T12:23:24.219Z,50.70
2016-06-25T12:24:18.689Z,is
2016-06-25T12:25:22.010Z,50.70
2016-06-25T12:26:11.732Z,50.70
2016-06-25T12:27:12.435Z,50.70
2016-06-25T12:28:18.279Z,50.70
2016-06-25T12:29:21.860Z,50.70
2016-06-25T12:30:17.514Z,50.80
2016-06-25T12:31:24.062Z,50.70
2016-06-25T12:32:22.121Z,50.80
2016-06-25T12:33:21.195Z,50.80
2016-06-25T12:34:17.150Z,50.90
2016-06-25T12:35:23.726Z,50.90
2016-06-25T12:36:22.515Z,50.80
2016-06-25T12:37:17.342Z,50.70
2016-06-25T12:38:23.254Z,50.90
2016-06-25T12:39:20.288Z,50.40
2016-06-25T12:40:17.780Z,50.80
2016-06-25T12:41:20.964Z,50.90
2016-06-25T12:42:20.114Z,50.80
2016-06-25T12:43:20.808Z,51.00
2016-06-25T12:44:13.294Z,51.00
2016-06-25T12:45:19.107Z,51.10
2016-06-25T12:46:10.531Z,50.90
2016-06-25T12:47:23.018Z,50.90
2016-06-25T12:48:17.075Z,50.90
2016-06-25T12:49:10.489Z,is
2016-06-25T12:50:23.034Z,51.10
2016-06-25T12:51:24.701Z,51.10
2016-06-25T12:52:25.183Z,51.00
2016-06-25T12:53:25.166Z,50.90
2016-06-25T12:54:22.112Z,51.10
2016-06-25T12:55:25.324Z,51.00
2016-06-25T12:56:17.371Z,51.00
2016-06-25T12:57:22.506Z,51.00